Time;durP1;ratioP1;P1;durP2;ratioP2;P2;SDS_P1;SDS_P2;PMS_P1;PMS_P2;Temp;Humidity;BMP_temperature;BMP_pressure;BME280_temperature;BME280_humidity;BME280_pressure;Samples;Min_cycle;Max_cycle;Signal;HPM_P1;HPM_P2
2023/10/01 00:00:27;;;;;;;6.55;3.70;;;20.20;90.40;;;;;;5039904;28;20025;-85
2023/10/01 00:02:55;;;;;;;4.63;3.40;;;20.10;90.50;;;;;;5035420;28;20442;-86
2023/10/01 00:05:22;;;;;;;5.95;3.20;;;20.10;90.60;;;;;;5034673;28;20076;-86
2023/10/01 00:07:51;;;;;;;8.45;4.40;;;20.10;90.70;;;;;;5035396;28;20083;-86
2023/10/01 00:10:17;;;;;;;4.78;3.58;;;20.10;90.70;;;;;;5034935;28;20021;-86
2023/10/01 00:12:52;;;;;;;6.35;3.78;;;20.00;90.60;;;;;;5034520;28;20041;-85
2023/10/01 00:15:20;;;;;;;6.43;3.63;;;20.00;90.70;;;;;;5036872;28;20458;-85
2023/10/01 00:17:48;;;;;;;5.78;3.30;;;20.00;90.80;;;;;;5038071;28;20458;-85
2023/10/01 00:20:23;;;;;;;3.83;2.78;;;20.10;90.80;;;;;;5039336;28;20034;-85
2023/10/01 00:22:51;;;;;;;3.95;2.95;;;20.10;90.80;;;;;;5037051;28;20048;-85
2023/10/01 00:25:22;;;;;;;4.57;2.80;;;20.10;90.70;;;;;;5035472;28;20470;-87
2023/10/01 00:27:49;;;;;;;4.60;2.90;;;20.10;90.70;;;;;;5038158;28;20081;-86
2023/10/01 00:30:15;;;;;;;3.22;2.30;;;20.10;90.70;;;;;;5036495;28;20446;-85
2023/10/01 00:32:41;;;;;;;4.57;2.63;;;20.10;90.70;;;;;;5033813;28;20025;-84
2023/10/01 00:35:10;;;;;;;4.32;2.90;;;20.10;90.70;;;;;;5033702;28;20037;-85
2023/10/01 00:37:36;;;;;;;6.82;3.88;;;20.10;90.60;;;;;;5033823;28;20029;-86
2023/10/01 00:40:06;;;;;;;7.03;4.22;;;20.20;90.60;;;;;;5019909;28;20180;-87
2023/10/01 00:42:36;;;;;;;5.53;3.30;;;20.20;90.50;;;;;;5033815;28;20037;-85
2023/10/01 00:45:14;;;;;;;9.80;4.78;;;20.10;90.50;;;;;;5033338;28;20030;-85
2023/10/01 00:47:41;;;;;;;3.92;2.58;;;20.10;90.60;;;;;;5033485;28;20060;-85
2023/10/01 00:50:21;;;;;;;5.20;3.25;;;20.10;90.60;;;;;;5033301;28;20033;-85
2023/10/01 00:52:49;;;;;;;3.78;2.97;;;20.10;90.50;;;;;;5033477;28;20088;-86
2023/10/01 00:55:15;;;;;;;5.28;3.08;;;20.10;90.50;;;;;;5032866;28;20030;-86
2023/10/01 00:57:42;;;;;;;4.90;3.20;;;20.10;90.60;;;;;;5033108;28;20033;-85
2023/10/01 01:00:14;;;;;;;6.10;4.03;;;20.10;90.60;;;;;;5032079;28;20037;-85
2023/10/01 01:02:56;;;;;;;5.90;3.47;;;20.10;90.60;;;;;;5032487;28;20034;-86
2023/10/01 01:05:34;;;;;;;7.30;4.10;;;20.10;90.60;;;;;;5034147;28;20037;-87
2023/10/01 01:08:07;;;;;;;7.25;3.30;;;20.00;90.50;;;;;;5034046;28;20025;-86
2023/10/01 01:10:42;;;;;;;3.60;3.08;;;20.00;90.50;;;;;;5033177;28;20458;-87
2023/10/01 01:13:08;;;;;;;4.78;3.00;;;20.00;90.50;;;;;;5032518;28;20469;-87
2023/10/01 01:15:35;;;;;;;5.13;3.42;;;19.90;90.40;;;;;;5031708;28;20413;-87
2023/10/01 01:18:07;;;;;;;4.45;2.80;;;19.90;90.50;;;;;;5033396;28;20120;-86
2023/10/01 01:20:36;;;;;;;4.90;2.95;;;19.90;90.60;;;;;;5033406;28;20438;-87
2023/10/01 01:23:05;;;;;;;4.53;3.38;;;19.90;90.60;;;;;;5032682;28;20037;-87
2023/10/01 01:25:32;;;;;;;6.13;4.25;;;19.90;90.60;;;;;;5033212;28;20025;-85
2023/10/01 01:27:58;;;;;;;8.70;4.25;;;19.90;90.50;;;;;;5033357;28;20053;-87
2023/10/01 01:30:26;;;;;;;5.13;3.33;;;19.90;90.60;;;;;;5037453;28;20025;-87
2023/10/01 01:32:57;;;;;;;4.78;3.55;;;19.90;90.60;;;;;;5035705;28;20124;-86
2023/10/01 01:35:29;;;;;;;6.35;3.55;;;19.90;90.50;;;;;;5037141;28;20083;-87
2023/10/01 01:38:01;;;;;;;4.00;3.33;;;19.90;90.50;;;;;;5036895;28;20034;-86
2023/10/01 01:40:50;;;;;;;5.60;3.70;;;19.90;90.60;;;;;;5036907;28;20033;-87
2023/10/01 01:43:16;;;;;;;7.00;5.45;;;19.90;90.30;;;;;;5039331;28;20514;-86
2023/10/01 01:45:47;;;;;;;6.63;4.18;;;19.80;90.00;;;;;;5036234;28;20034;-86
2023/10/01 01:50:54;;;;;;;5.68;4.10;;;19.70;90.30;;;;;;5037597;28;20060;-86
2023/10/01 01:53:21;;;;;;;8.32;5.00;;;19.70;90.30;;;;;;5037085;28;20125;-86
2023/10/01 01:55:49;;;;;;;9.02;5.65;;;19.70;90.30;;;;;;5039573;28;20037;-85
2023/10/01 01:58:24;;;;;;;6.72;4.22;;;19.70;89.70;;;;;;5040616;28;20036;-85
2023/10/01 02:01:09;;;;;;;6.00;4.00;;;19.60;90.00;;;;;;5036651;28;20108;-85
2023/10/01 02:03:39;;;;;;;4.55;3.47;;;19.70;90.20;;;;;;5037338;28;20405;-85
2023/10/01 02:06:09;;;;;;;3.97;2.97;;;19.70;90.30;;;;;;5036770;28;20025;-85
2023/10/01 02:08:44;;;;;;;6.55;3.60;;;19.70;90.40;;;;;;5020500;28;20037;-85
2023/10/01 02:11:10;;;;;;;6.22;3.90;;;19.70;90.40;;;;;;5034964;28;20030;-84
2023/10/01 02:13:45;;;;;;;5.65;3.53;;;19.60;90.40;;;;;;5036848;28;20041;-85
2023/10/01 02:19:11;;;;;;;6.55;4.03;;;19.70;90.50;;;;;;5035963;28;20034;-85
2023/10/01 02:21:43;;;;;;;7.75;3.65;;;19.60;90.00;;;;;;5036480;28;20402;-86
2023/10/01 02:24:11;;;;;;;6.30;4.15;;;19.60;90.00;;;;;;5040841;28;20421;-85
2023/10/01 02:26:39;;;;;;;9.40;4.70;;;19.60;89.80;;;;;;5041081;28;20053;-86
2023/10/01 02:29:05;;;;;;;7.57;5.28;;;19.50;88.60;;;;;;5041369;28;20481;-86
2023/10/01 02:31:36;;;;;;;8.30;4.65;;;19.40;88.20;;;;;;5039902;28;20089;-84
2023/10/01 02:34:08;;;;;;;6.97;4.72;;;19.30;88.20;;;;;;5041864;28;20037;-86
2023/10/01 02:36:36;;;;;;;8.30;4.90;;;19.20;88.60;;;;;;5038318;28;20080;-87
2023/10/01 02:39:11;;;;;;;7.75;4.50;;;19.10;88.60;;;;;;5037640;28;20355;-86
2023/10/01 02:41:40;;;;;;;9.13;4.85;;;19.10;88.80;;;;;;5037688;28;20061;-86
2023/10/01 02:44:11;;;;;;;5.78;4.35;;;19.00;88.90;;;;;;5036532;28;20580;-86
2023/10/01 02:46:37;;;;;;;8.00;4.53;;;19.00;89.70;;;;;;5019256;28;20041;-86
2023/10/01 02:49:04;;;;;;;9.00;3.92;;;19.00;90.10;;;;;;5035283;28;20104;-85
2023/10/01 02:51:37;;;;;;;5.05;3.63;;;18.90;90.10;;;;;;5039425;28;20030;-83
2023/10/01 02:54:05;;;;;;;7.03;3.85;;;18.90;90.30;;;;;;5035840;28;20415;-85
2023/10/01 02:56:52;;;;;;;6.10;3.85;;;18.90;90.20;;;;;;5035974;28;20026;-85
2023/10/01 02:59:19;;;;;;;6.03;3.20;;;19.00;90.20;;;;;;5038118;28;20040;-85
2023/10/01 03:01:48;;;;;;;5.65;3.00;;;19.00;90.30;;;;;;5047931;28;20041;-86
2023/10/01 03:04:18;;;;;;;6.50;3.63;;;19.00;90.50;;;;;;5039332;28;20063;-85
2023/10/01 03:06:54;;;;;;;9.55;4.68;;;19.00;90.70;;;;;;5044098;28;20533;-85
2023/10/01 03:09:29;;;;;;;7.03;4.40;;;19.10;90.40;;;;;;5048221;28;20132;-84
2023/10/01 03:15:17;;;;;;;7.43;4.20;;;19.00;90.60;;;;;;4982081;28;20038;-84
2023/10/01 03:17:56;;;;;;;6.03;3.63;;;19.00;90.60;;;;;;5032934;28;20393;-85
2023/10/01 03:23:17;;;;;;;9.63;4.13;;;19.00;90.50;;;;;;5037843;28;20533;-84
2023/10/01 03:25:55;;;;;;;6.90;3.85;;;19.00;90.60;;;;;;5035004;28;20264;-84
2023/10/01 03:28:28;;;;;;;6.45;4.10;;;19.00;90.50;;;;;;5035658;28;20054;-84
2023/10/01 03:31:06;;;;;;;5.60;3.47;;;19.00;90.50;;;;;;5034942;28;20033;-84
2023/10/01 03:33:33;;;;;;;6.32;3.67;;;19.00;90.60;;;;;;5037688;28;20156;-84
2023/10/01 03:35:59;;;;;;;6.28;3.45;;;19.00;90.70;;;;;;5032883;28;20026;-84
2023/10/01 03:38:25;;;;;;;6.63;3.53;;;19.10;90.80;;;;;;5032835;28;20032;-83
2023/10/01 03:41:00;;;;;;;5.43;3.20;;;19.10;90.90;;;;;;5037859;28;20033;-84
2023/10/01 03:43:32;;;;;;;7.03;2.88;;;19.10;90.90;;;;;;5035738;28;20087;-83
2023/10/01 03:46:07;;;;;;;5.85;3.60;;;19.10;91.00;;;;;;5035205;28;20025;-83
2023/10/01 03:51:29;;;;;;;5.25;2.95;;;19.10;91.10;;;;;;5043945;28;20043;-84
2023/10/01 03:53:59;;;;;;;5.88;2.85;;;19.20;91.10;;;;;;5046510;28;20071;-85
2023/10/01 03:56:29;;;;;;;4.63;3.00;;;19.20;90.90;;;;;;5043584;28;20429;-85
2023/10/01 03:58:58;;;;;;;7.38;3.30;;;19.20;91.00;;;;;;5035532;28;20029;-85
2023/10/01 04:01:58;;;;;;;5.70;3.30;;;19.10;91.00;;;;;;5034572;28;20069;-86
2023/10/01 04:04:20;;;;;;;4.25;2.58;;;19.10;91.10;;;;;;5034975;28;20041;-86
2023/10/01 04:06:46;;;;;;;5.82;3.30;;;19.10;91.10;;;;;;5038923;28;20054;-85
2023/10/01 04:09:18;;;;;;;4.70;2.63;;;19.10;90.90;;;;;;5040190;28;20490;-85
2023/10/01 04:11:50;;;;;;;;;;;19.10;90.90;;;;;;5035291;28;20029;-85
2023/10/01 04:14:17;;;;;;;4.32;2.53;;;19.20;91.00;;;;;;5036125;28;19959;-85
2023/10/01 04:16:46;;;;;;;7.00;2.42;;;19.20;90.90;;;;;;5036090;28;20068;-85
2023/10/01 04:19:18;;;;;;;4.90;2.60;;;19.20;90.90;;;;;;5037147;28;20057;-86
2023/10/01 04:21:50;;;;;;;4.63;2.72;;;19.20;90.90;;;;;;5037964;28;20037;-86
2023/10/01 04:24:19;;;;;;;4.68;2.67;;;19.20;90.90;;;;;;5035363;28;20033;-86
2023/10/01 04:26:46;;;;;;;3.67;2.38;;;19.20;90.80;;;;;;5034159;28;20092;-85
2023/10/01 04:29:16;;;;;;;7.25;2.80;;;19.20;90.80;;;;;;5035474;28;20026;-85
2023/10/01 04:31:42;;;;;;;6.90;3.50;;;19.20;90.70;;;;;;5032010;28;20022;-85
2023/10/01 04:34:11;;;;;;;7.82;3.88;;;19.20;90.50;;;;;;5033950;28;20033;-86
2023/10/01 04:36:42;;;;;;;5.95;2.90;;;19.10;90.30;;;;;;5033570;28;20358;-85
2023/10/01 04:39:09;;;;;;;6.68;3.13;;;19.10;90.30;;;;;;5036912;28;20029;-85
2023/10/01 04:41:35;;;;;;;6.88;3.10;;;19.00;90.30;;;;;;5035926;28;20073;-85
2023/10/01 04:44:07;;;;;;;8.90;3.67;;;18.90;90.40;;;;;;5035164;28;20037;-84
2023/10/01 04:46:40;;;;;;;6.90;3.70;;;18.90;90.50;;;;;;5035071;28;20080;-86
2023/10/01 04:49:26;;;;;;;6.93;3.20;;;18.80;90.40;;;;;;5035641;28;20030;-85
2023/10/01 04:51:55;;;;;;;7.00;3.85;;;18.90;90.60;;;;;;5020990;28;20031;-86
2023/10/01 04:54:21;;;;;;;7.57;3.80;;;18.80;90.50;;;;;;5035127;28;20036;-84
2023/10/01 04:56:49;;;;;;;6.38;3.22;;;18.70;90.50;;;;;;5034806;28;20419;-86
2023/10/01 04:59:15;;;;;;;6.35;3.72;;;18.70;90.70;;;;;;5034286;28;20463;-87
2023/10/01 05:01:41;;;;;;;8.75;3.85;;;18.80;90.70;;;;;;5033212;28;20037;-87
2023/10/01 05:04:11;;;;;;;8.48;4.10;;;18.70;90.70;;;;;;5035406;28;20065;-87
2023/10/01 05:06:42;;;;;;;9.52;4.53;;;18.70;90.70;;;;;;5037830;28;20076;-89
2023/10/01 05:09:14;;;;;;;6.43;3.30;;;18.70;90.70;;;;;;5036714;28;20030;-87
2023/10/01 05:11:42;;;;;;;4.97;3.10;;;18.60;90.70;;;;;;5036827;28;20026;-87
2023/10/01 05:14:08;;;;;;;8.30;3.75;;;18.70;91.00;;;;;;5037922;28;20038;-87
2023/10/01 05:16:38;;;;;;;10.90;3.92;;;18.60;90.80;;;;;;5037047;28;20046;-86
2023/10/01 05:19:13;;;;;;;8.50;3.13;;;18.60;90.70;;;;;;5038418;28;20126;-85
2023/10/01 05:21:46;;;;;;;7.25;3.13;;;18.60;90.80;;;;;;5038695;28;20473;-86
2023/10/01 05:24:31;;;;;;;5.82;3.15;;;18.60;91.00;;;;;;5039068;28;20056;-85
2023/10/01 05:26:57;;;;;;;7.07;3.33;;;18.60;91.10;;;;;;5039066;28;20096;-85
2023/10/01 05:29:25;;;;;;;5.28;3.10;;;18.50;91.20;;;;;;5038347;28;20021;-86
2023/10/01 05:31:51;;;;;;;7.32;3.35;;;18.50;91.30;;;;;;5038555;28;20030;-85
2023/10/01 05:34:19;;;;;;;6.30;3.35;;;18.60;91.40;;;;;;5038549;28;20025;-85
2023/10/01 05:36:45;;;;;;;5.80;3.28;;;18.60;91.50;;;;;;5037422;28;20030;-86
2023/10/01 05:39:11;;;;;;;9.88;4.15;;;18.60;91.50;;;;;;5036386;28;20036;-86
2023/10/01 05:41:44;;;;;;;6.28;3.30;;;18.60;91.50;;;;;;5036653;28;20026;-85
2023/10/01 05:44:11;;;;;;;8.07;3.55;;;18.60;91.50;;;;;;5039193;28;20429;-85
2023/10/01 05:46:36;;;;;;;5.53;2.67;;;18.60;91.50;;;;;;5037891;28;20038;-86
2023/10/01 05:49:03;;;;;;;3.35;2.25;;;18.60;91.60;;;;;;5040037;28;20033;-85
2023/10/01 05:51:44;;;;;;;6.72;2.97;;;18.70;91.70;;;;;;5039636;28;20036;-86
2023/10/01 05:54:18;;;;;;;5.32;3.00;;;18.70;91.70;;;;;;5037754;28;20068;-84
2023/10/01 05:56:48;;;;;;;6.57;3.10;;;18.80;91.60;;;;;;5038055;28;20041;-86
2023/10/01 05:59:22;;;;;;;6.80;3.03;;;18.80;91.60;;;;;;5036970;28;20167;-86
2023/10/01 06:01:48;;;;;;;5.30;2.75;;;18.80;91.60;;;;;;5037004;28;20071;-86
2023/10/01 06:04:17;;;;;;;6.88;3.20;;;18.90;91.60;;;;;;5037321;28;20131;-86
2023/10/01 06:06:43;;;;;;;5.45;2.53;;;18.90;91.60;;;;;;5019661;28;20167;-86
2023/10/01 06:09:14;;;;;;;6.85;3.05;;;18.90;91.70;;;;;;5037676;28;20037;-87
2023/10/01 06:12:00;;;;;;;7.43;3.20;;;18.90;91.70;;;;;;5037766;28;20544;-86
2023/10/01 06:14:39;;;;;;;5.20;2.97;;;18.90;91.70;;;;;;5022931;28;20079;-86
2023/10/01 06:17:06;;;;;;;7.07;3.33;;;19.00;91.60;;;;;;5039228;28;20483;-86
2023/10/01 06:19:32;;;;;;;9.35;3.92;;;19.00;91.50;;;;;;5037667;28;20033;-86
2023/10/01 06:22:12;;;;;;;7.35;3.92;;;19.00;91.50;;;;;;5037466;28;20073;-87
2023/10/01 06:24:43;;;;;;;7.93;3.78;;;18.90;91.40;;;;;;5036884;28;20041;-87
2023/10/01 06:27:13;;;;;;;8.18;3.70;;;18.90;91.40;;;;;;5037217;28;20132;-87
2023/10/01 06:29:51;;;;;;;9.63;4.50;;;18.90;91.30;;;;;;5039871;28;20036;-85
2023/10/01 06:32:22;;;;;;;8.10;3.80;;;18.90;91.30;;;;;;5038404;28;20029;-85
2023/10/01 06:34:49;;;;;;;9.82;4.40;;;18.80;91.20;;;;;;5038068;28;20030;-86
2023/10/01 06:37:15;;;;;;;10.25;4.60;;;18.80;91.60;;;;;;5037279;28;20458;-86
2023/10/01 06:39:41;;;;;;;11.48;4.68;;;18.70;91.40;;;;;;5036334;28;20029;-86
2023/10/01 06:42:20;;;;;;;8.75;4.50;;;18.60;91.40;;;;;;5037844;28;20034;-86
2023/10/01 06:44:58;;;;;;;7.00;3.72;;;18.70;91.50;;;;;;5037624;28;20037;-86
2023/10/01 06:47:28;;;;;;;10.13;4.55;;;18.70;91.60;;;;;;5040135;28;20032;-86
2023/10/01 06:52:41;;;;;;;7.50;3.60;;;18.70;91.50;;;;;;5036452;28;20029;-85
2023/10/01 06:55:25;;;;;;;6.97;3.42;;;18.70;91.60;;;;;;5037289;28;20374;-86
2023/10/01 06:57:51;;;;;;;7.10;3.53;;;18.70;91.70;;;;;;5036675;28;20512;-87
2023/10/01 07:00:21;;;;;;;6.50;3.60;;;18.80;91.80;;;;;;5036519;28;20029;-86
2023/10/01 07:02:49;;;;;;;7.55;3.70;;;18.90;91.90;;;;;;5035874;28;20029;-86
2023/10/01 07:05:20;;;;;;;8.18;3.95;;;18.90;91.90;;;;;;5036365;28;20047;-87
2023/10/01 07:07:48;;;;;;;5.93;3.38;;;18.90;91.80;;;;;;5035722;28;20032;-86
2023/10/01 07:10:14;;;;;;;8.65;3.60;;;19.00;91.70;;;;;;5036282;28;20033;-87
2023/10/01 07:12:53;;;;;;;7.43;4.07;;;19.00;91.70;;;;;;5035500;28;20033;-86
2023/10/01 07:15:20;;;;;;;11.63;4.97;;;19.00;91.40;;;;;;5034984;28;20091;-86
2023/10/01 07:17:47;;;;;;;9.40;4.05;;;19.00;91.10;;;;;;5034709;28;20041;-86
2023/10/01 07:20:19;;;;;;;8.52;3.90;;;19.00;91.40;;;;;;5035949;28;20033;-87
2023/10/01 07:22:45;;;;;;;10.05;4.40;;;19.00;91.20;;;;;;5036676;28;20437;-86
2023/10/01 07:28:18;;;;;;;10.30;4.60;;;19.10;91.10;;;;;;5002133;28;20049;-86
2023/10/01 07:30:45;;;;;;;7.78;4.20;;;19.10;90.90;;;;;;5013816;28;20438;-87
2023/10/01 07:33:17;;;;;;;12.57;5.93;;;19.20;91.00;;;;;;5023940;28;20042;-88
2023/10/01 07:35:44;;;;;;;6.67;4.00;;;19.20;90.80;;;;;;5035632;28;20025;-85
2023/10/01 07:38:14;;;;;;;9.20;4.32;;;19.20;90.70;;;;;;5036315;28;20028;-86
2023/10/01 07:40:57;;;;;;;9.68;5.13;;;19.20;90.80;;;;;;5036333;28;20037;-86
2023/10/01 07:43:27;;;;;;;10.15;5.15;;;19.20;90.80;;;;;;5035707;28;20052;-86
2023/10/01 07:45:58;;;;;;;12.25;5.47;;;19.30;90.80;;;;;;5035378;28;20056;-87
2023/10/01 07:48:27;;;;;;;9.95;5.00;;;19.30;90.70;;;;;;5035035;28;20397;-87
2023/10/01 07:50:55;;;;;;;9.23;4.60;;;19.30;90.70;;;;;;5035043;28;20041;-87
2023/10/01 07:53:32;;;;;;;11.75;5.95;;;19.30;90.70;;;;;;5036200;28;20056;-86
2023/10/01 07:56:01;;;;;;;11.70;5.63;;;19.40;90.60;;;;;;5035948;28;20025;-85
2023/10/01 07:58:45;;;;;;;16.23;6.32;;;19.30;90.60;;;;;;5035763;28;20087;-86
2023/10/01 08:03:55;;;;;;;11.52;5.40;;;19.30;90.60;;;;;;5034990;28;20485;-86
2023/10/01 08:06:30;;;;;;;10.65;5.53;;;19.30;90.70;;;;;;5034602;28;20034;-86
2023/10/01 08:09:01;;;;;;;15.13;6.80;;;19.30;90.70;;;;;;5035637;28;20075;-85
2023/10/01 08:14:11;;;;;;;13.25;5.72;;;19.30;90.60;;;;;;5035035;28;20041;-85
2023/10/01 08:16:47;;;;;;;8.45;4.28;;;19.30;90.80;;;;;;5034402;28;20029;-84
2023/10/01 08:19:20;;;;;;;12.32;6.13;;;19.40;91.00;;;;;;5034587;28;20044;-86
2023/10/01 08:21:50;;;;;;;13.98;7.30;;;19.60;91.00;;;;;;5034348;28;20108;-86
2023/10/01 08:24:20;;;;;;;10.73;5.82;;;19.50;90.80;;;;;;5033759;28;20057;-86
2023/10/01 08:27:12;;;;;;;13.57;5.75;;;19.50;90.90;;;;;;5016865;28;20053;-86
2023/10/01 08:32:23;;;;;;;16.67;6.88;;;19.80;90.90;;;;;;5034545;28;20393;-85
2023/10/01 08:35:02;;;;;;;13.73;6.65;;;19.90;90.70;;;;;;5034330;28;20041;-86
2023/10/01 08:37:37;;;;;;;8.88;5.00;;;20.00;90.80;;;;;;5034053;28;20120;-85
2023/10/01 08:40:13;;;;;;;14.27;6.90;;;20.00;90.60;;;;;;5034406;28;20513;-85
2023/10/01 08:42:47;;;;;;;13.70;7.45;;;20.10;90.60;;;;;;5035184;28;20028;-86
2023/10/01 08:45:17;;;;;;;11.02;6.32;;;20.10;90.60;;;;;;5034395;28;20095;-85
2023/10/01 08:47:45;;;;;;;13.85;7.47;;;20.20;90.40;;;;;;5034271;28;20036;-85
2023/10/01 08:50:27;;;;;;;12.07;5.85;;;20.20;90.40;;;;;;5032853;28;20051;-85
2023/10/01 08:52:58;;;;;;;16.52;8.27;;;20.20;90.50;;;;;;5034410;28;20025;-85
2023/10/01 09:00:48;;;;;;;;;;;20.40;90.50;;;;;;5034653;28;20111;-85
2023/10/01 09:03:28;;;;;;;13.85;7.68;;;20.50;90.40;;;;;;5033787;28;19963;-85
2023/10/01 09:06:06;;;;;;;12.10;5.82;;;20.50;90.30;;;;;;5033910;28;20076;-85
2023/10/01 09:08:42;;;;;;;13.80;6.40;;;20.60;90.20;;;;;;5034279;28;20063;-85
2023/10/01 09:11:12;;;;;;;15.00;6.88;;;20.70;90.30;;;;;;5033993;28;20025;-85
2023/10/01 09:14:14;;;;;;;11.80;5.90;;;20.80;90.40;;;;;;5034026;28;20160;-85
2023/10/01 09:16:44;;;;;;;15.70;8.35;;;20.90;90.30;;;;;;5034221;28;20113;-85
2023/10/01 09:19:30;;;;;;;12.65;7.15;;;20.90;90.20;;;;;;5034014;28;20034;-86
2023/10/01 09:25:14;;;;;;;16.70;7.65;;;21.00;90.40;;;;;;5033807;28;20052;-86
2023/10/01 09:27:57;;;;;;;17.55;7.68;;;21.00;90.20;;;;;;5032453;28;20455;-85
2023/10/01 09:30:26;;;;;;;16.30;7.50;;;21.00;90.30;;;;;;5034282;28;20040;-85
2023/10/01 09:33:04;;;;;;;17.23;8.07;;;21.10;90.20;;;;;;5033654;28;20042;-85
2023/10/01 09:35:56;;;;;;;14.57;7.22;;;21.20;90.30;;;;;;5033859;28;20052;-86
2023/10/01 09:38:27;;;;;;;17.63;7.88;;;21.30;90.30;;;;;;5032106;28;20458;-85
2023/10/01 09:40:55;;;;;;;14.63;7.43;;;21.30;90.20;;;;;;5033370;28;20030;-85
2023/10/01 09:43:26;;;;;;;17.88;7.68;;;21.40;90.30;;;;;;5032152;28;20033;-86
2023/10/01 09:45:52;;;;;;;16.70;7.07;;;21.50;90.30;;;;;;5034047;28;20026;-86
2023/10/01 09:49:09;;;;;;;14.88;7.45;;;21.60;90.30;;;;;;5033342;28;20065;-85
2023/10/01 09:51:20;;;;;;;14.98;7.43;;;21.60;90.30;;;;;;5033187;28;20057;-84
2023/10/01 09:53:50;;;;;;;13.82;6.72;;;21.60;90.10;;;;;;5037049;28;20033;-86
2023/10/01 09:56:29;;;;;;;16.83;7.07;;;21.60;90.20;;;;;;5037121;28;20033;-85
2023/10/01 09:59:01;;;;;;;14.27;7.25;;;21.60;90.20;;;;;;5021340;28;20052;-86
2023/10/01 10:01:31;;;;;;;16.60;7.32;;;21.80;90.00;;;;;;5037457;28;20361;-86
2023/10/01 10:04:04;;;;;;;15.88;7.80;;;21.80;89.50;;;;;;5035620;28;20087;-86
2023/10/01 10:06:31;;;;;;;15.43;6.40;;;21.90;89.20;;;;;;5037191;28;20036;-86
2023/10/01 10:09:06;;;;;;;13.80;7.38;;;22.00;89.30;;;;;;5037135;28;20047;-85
2023/10/01 10:11:37;;;;;;;13.70;6.90;;;22.20;89.20;;;;;;5036917;28;20022;-83
2023/10/01 10:14:29;;;;;;;16.00;7.53;;;22.30;88.90;;;;;;5036312;28;20042;-86
2023/10/01 10:17:18;;;;;;;15.77;7.22;;;22.40;88.40;;;;;;5036901;28;20025;-86
2023/10/01 10:20:16;;;;;;;14.05;6.82;;;22.50;87.80;;;;;;5036073;28;20382;-85
2023/10/01 10:23:29;;;;;;;14.63;6.88;;;22.60;88.20;;;;;;5036808;28;20120;-86
2023/10/01 10:26:14;;;;;;;;;;;22.80;88.10;;;;;;5037173;28;20108;-85
2023/10/01 10:28:55;;;;;;;13.32;6.15;;;22.90;87.30;;;;;;5035606;28;19916;-86
2023/10/01 10:31:30;;;;;;;13.68;7.00;;;23.10;87.60;;;;;;5035765;28;20137;-85
2023/10/01 10:34:24;;;;;;;12.95;6.63;;;23.20;87.10;;;;;;5035274;28;20034;-86
2023/10/01 10:36:54;;;;;;;12.20;6.47;;;23.40;86.40;;;;;;5035457;28;20064;-85
2023/10/01 10:39:48;;;;;;;13.75;6.47;;;23.40;86.10;;;;;;5036669;28;20026;-84
2023/10/01 10:42:27;;;;;;;15.35;6.80;;;23.30;85.00;;;;;;5034069;28;20072;-85
2023/10/01 10:45:24;;;;;;;9.90;5.72;;;23.20;85.60;;;;;;5036352;28;20164;-85
2023/10/01 10:48:00;;;;;;;13.40;6.68;;;23.30;86.30;;;;;;5035381;28;20501;-85
2023/10/01 10:50:49;;;;;;;13.70;6.53;;;23.20;86.30;;;;;;5036002;28;20029;-85
2023/10/01 10:53:20;;;;;;;12.02;6.57;;;23.20;86.30;;;;;;5036083;28;20462;-85
2023/10/01 10:56:00;;;;;;;13.57;6.53;;;23.10;86.40;;;;;;5035482;28;20037;-86
2023/10/01 10:58:53;;;;;;;12.68;5.90;;;23.10;86.70;;;;;;5036855;28;20025;-84
2023/10/01 11:01:21;;;;;;;13.82;7.22;;;23.10;86.30;;;;;;5033599;28;20050;-86
2023/10/01 11:03:56;;;;;;;15.40;7.40;;;23.10;86.50;;;;;;5034830;28;20364;-85
2023/10/01 11:06:44;;;;;;;14.02;6.95;;;23.10;86.30;;;;;;5017690;28;20033;-85
2023/10/01 11:09:23;;;;;;;15.05;6.75;;;23.20;86.60;;;;;;5034859;28;20033;-85
2023/10/01 11:11:50;;;;;;;13.18;6.63;;;23.20;86.70;;;;;;5033729;28;20480;-84
2023/10/01 11:14:16;;;;;;;14.30;7.45;;;23.20;87.50;;;;;;5017315;28;20116;-86
2023/10/01 11:16:44;;;;;;;15.95;7.43;;;23.30;87.00;;;;;;5034426;28;20140;-84
2023/10/01 11:19:14;;;;;;;14.60;7.68;;;23.40;86.70;;;;;;5035129;28;20033;-86
2023/10/01 11:22:00;;;;;;;17.40;8.05;;;23.40;85.80;;;;;;5035185;28;20029;-85
2023/10/01 11:24:39;;;;;;;16.92;7.55;;;23.40;86.30;;;;;;5034055;28;20041;-85
2023/10/01 11:27:17;;;;;;;19.42;8.30;;;23.50;85.50;;;;;;5034802;28;20045;-85
2023/10/01 11:30:13;;;;;;;15.75;7.55;;;23.50;84.90;;;;;;5033390;28;20371;-86
2023/10/01 11:33:08;;;;;;;14.13;7.32;;;23.70;85.60;;;;;;5034110;28;20045;-84
2023/10/01 11:35:59;;;;;;;15.50;7.63;;;23.80;85.50;;;;;;5035153;28;20037;-85
2023/10/01 11:38:25;;;;;;;14.57;7.05;;;23.90;84.40;;;;;;5036479;28;20374;-85
2023/10/01 11:41:18;;;;;;;13.95;6.78;;;24.00;86.10;;;;;;5036760;28;20060;-85
2023/10/01 11:43:59;;;;;;;16.25;7.25;;;24.20;85.70;;;;;;5035898;28;20072;-85
2023/10/01 11:46:32;;;;;;;13.90;6.47;;;24.30;84.10;;;;;;5035184;28;20083;-86
2023/10/01 11:49:10;;;;;;;15.07;6.72;;;24.30;83.00;;;;;;5034384;28;20087;-86
2023/10/01 11:51:50;;;;;;;14.35;6.60;;;24.20;83.10;;;;;;5034756;28;20458;-82
2023/10/01 11:54:17;;;;;;;13.23;6.28;;;24.20;83.60;;;;;;5033584;28;20033;-83
2023/10/01 11:57:04;;;;;;;14.73;6.65;;;24.30;83.50;;;;;;5033949;28;20104;-84
2023/10/01 11:59:34;;;;;;;11.23;6.40;;;24.30;83.50;;;;;;5034035;28;20124;-84
2023/10/01 12:02:18;;;;;;;11.98;6.00;;;24.40;84.20;;;;;;5034483;28;20029;-83
2023/10/01 12:04:44;;;;;;;13.23;6.35;;;24.40;84.30;;;;;;5034156;28;20067;-84
2023/10/01 12:07:18;;;;;;;15.07;6.97;;;24.50;84.30;;;;;;5034087;28;20056;-83
2023/10/01 12:09:50;;;;;;;13.45;6.10;;;24.50;84.20;;;;;;5033760;28;20025;-84
2023/10/01 12:12:21;;;;;;;12.93;6.25;;;24.70;84.40;;;;;;5033422;28;20049;-84
2023/10/01 12:14:56;;;;;;;11.97;6.20;;;24.70;83.10;;;;;;5033087;28;20033;-84
2023/10/01 12:17:27;;;;;;;15.57;7.38;;;24.80;83.00;;;;;;5035021;28;20159;-85
2023/10/01 12:20:01;;;;;;;13.73;6.15;;;24.90;82.00;;;;;;5032770;28;20021;-85
2023/10/01 12:22:29;;;;;;;12.10;6.55;;;24.90;82.00;;;;;;5033741;28;20027;-84
2023/10/01 12:24:56;;;;;;;10.00;5.63;;;24.80;81.90;;;;;;5033774;28;20076;-84
2023/10/01 12:27:41;;;;;;;11.10;5.70;;;24.80;82.40;;;;;;5033909;28;20051;-84
2023/10/01 12:30:27;;;;;;;12.43;5.78;;;24.70;82.30;;;;;;5033499;28;20044;-84
2023/10/01 12:32:55;;;;;;;11.27;5.80;;;24.60;82.60;;;;;;5033522;28;20037;-85
2023/10/01 12:35:27;;;;;;;11.90;5.70;;;24.60;82.80;;;;;;5033819;28;20065;-84
2023/10/01 12:38:05;;;;;;;11.02;5.70;;;24.60;83.10;;;;;;5032575;28;20057;-84
2023/10/01 12:40:35;;;;;;;12.00;6.00;;;24.70;83.80;;;;;;5033965;28;20125;-84
2023/10/01 12:43:32;;;;;;;11.18;5.35;;;24.80;82.40;;;;;;5016673;28;20040;-83
2023/10/01 12:45:54;;;;;;;12.25;5.55;;;24.90;82.50;;;;;;5033182;28;20103;-84
2023/10/01 12:48:20;;;;;;;10.73;5.43;;;25.00;82.70;;;;;;5035125;28;20072;-85
2023/10/01 12:51:08;;;;;;;13.48;5.70;;;25.00;82.30;;;;;;5033000;28;20029;-85
2023/10/01 12:53:34;;;;;;;12.18;5.03;;;25.10;82.20;;;;;;5035728;28;20073;-84
2023/10/01 12:56:03;;;;;;;13.27;5.30;;;25.20;82.20;;;;;;5034164;28;20429;-83
2023/10/01 12:58:39;;;;;;;12.48;5.47;;;25.20;82.20;;;;;;5033324;28;20038;-84
2023/10/01 13:01:31;;;;;;;10.43;5.53;;;25.20;82.30;;;;;;5034271;28;20040;-84
2023/10/01 13:06:46;;;;;;;10.10;5.03;;;25.40;81.70;;;;;;5034612;28;20513;-84
2023/10/01 13:09:53;;;;;;;12.48;6.07;;;25.50;83.10;;;;;;5033241;28;20033;-83
2023/10/01 13:12:17;;;;;;;11.20;5.30;;;25.60;82.00;;;;;;5034595;28;20537;-84
2023/10/01 13:14:44;;;;;;;9.88;5.38;;;25.70;81.90;;;;;;5033744;28;20465;-84
2023/10/01 13:17:23;;;;;;;9.43;5.10;;;25.70;81.40;;;;;;5033701;28;20068;-84
2023/10/01 13:19:49;;;;;;;11.23;5.10;;;25.70;80.70;;;;;;5033060;28;20025;-84
2023/10/01 13:22:20;;;;;;;9.70;4.90;;;25.80;80.80;;;;;;5033973;28;20356;-85
2023/10/01 13:24:55;;;;;;;9.45;5.18;;;25.80;80.90;;;;;;5034320;28;20041;-85
2023/10/01 13:27:22;;;;;;;12.45;5.15;;;25.80;80.80;;;;;;5019371;28;20462;-85
2023/10/01 13:29:49;;;;;;;9.25;4.85;;;25.70;80.60;;;;;;5036637;28;20029;-84
2023/10/01 13:32:26;;;;;;;9.95;5.18;;;25.70;80.90;;;;;;5036277;28;20113;-83
2023/10/01 13:34:58;;;;;;;10.45;5.35;;;25.70;81.50;;;;;;5052103;28;20038;-84
2023/10/01 14:10:20;;;;;;;11.40;5.90;;;25.10;81.60;;;;;;5034512;28;20032;-84
2023/10/01 14:12:55;;;;;;;12.13;6.13;;;25.10;81.70;;;;;;5035996;28;20037;-84
2023/10/01 14:15:26;;;;;;;11.88;5.75;;;25.20;81.90;;;;;;5035523;28;20033;-85
2023/10/01 14:18:00;;;;;;;11.75;5.88;;;25.30;81.90;;;;;;5034488;28;20526;-83
2023/10/01 14:23:39;;;;;;;11.88;6.13;;;25.60;81.40;;;;;;5035388;28;20415;-85
2023/10/01 14:26:09;;;;;;;11.50;6.25;;;25.70;80.30;;;;;;5034959;28;20049;-83
2023/10/01 14:28:35;;;;;;;9.93;6.07;;;25.70;79.00;;;;;;5033962;28;20088;-85